Time;durP1;ratioP1;P1;durP2;ratioP2;P2;SDS_P1;SDS_P2;PMS_P1;PMS_P2;Temp;Humidity;BMP_temperature;BMP_pressure;BME280_temperature;BME280_humidity;BME280_pressure;Samples;Min_cycle;Max_cycle;Signal;HPM_P1;HPM_P2
2022/10/10 00:01:34;;;;;;;;;20.33;20.33;;;;;14.57;59.74;100887.88;4959581;28;45464;-73
2022/10/10 00:04:00;;;;;;;;;18.00;14.00;;;;;14.78;60.15;100928.38;4958973;28;45280;-72
2022/10/10 00:06:26;;;;;;;;;21.00;17.33;;;;;14.72;60.17;100904.94;4959744;28;46587;-72
2022/10/10 00:08:52;;;;;;;;;23.67;20.33;;;;;14.78;59.98;100920.34;4959330;28;45489;-71
2022/10/10 00:11:19;;;;;;;;;18.00;18.00;;;;;14.87;60.04;100940.75;4959381;28;45291;-71
2022/10/10 00:13:45;;;;;;;;;20.00;17.67;;;;;14.90;59.75;100921.69;4959438;28;45289;-70
2022/10/10 00:16:11;;;;;;;;;18.33;17.33;;;;;14.58;59.62;100860.13;4958645;28;46502;-71
2022/10/10 00:18:37;;;;;;;;;19.33;18.33;;;;;14.59;59.92;100867.97;4959376;28;45472;-71
2022/10/10 00:21:03;;;;;;;;;19.67;16.67;;;;;14.80;59.90;100890.72;4967616;28;45438;-70
2022/10/10 00:23:28;;;;;;;;;17.33;16.33;;;;;14.92;60.00;100921.50;4953435;28;45408;-73
2022/10/10 00:25:54;;;;;;;;;16.00;16.00;;;;;14.84;59.94;100908.97;4959479;28;47397;-72
2022/10/10 00:28:19;;;;;;;;;18.67;16.33;;;;;14.60;59.87;100871.50;4959409;28;45444;-73
2022/10/10 00:30:44;;;;;;;;;22.67;18.33;;;;;14.42;59.92;100825.34;4971651;28;45291;-71
2022/10/10 00:33:10;;;;;;;;;18.00;18.00;;;;;14.85;60.30;100904.47;4959245;28;45492;-71
2022/10/10 00:35:36;;;;;;;;;26.33;18.67;;;;;14.54;59.62;100856.94;4958540;28;45888;-71
2022/10/10 00:38:02;;;;;;;;;19.33;19.33;;;;;14.75;59.63;100893.91;4958853;28;45320;-71
2022/10/10 00:40:27;;;;;;;;;21.33;20.00;;;;;14.27;59.61;100804.59;4962666;28;45522;-71
2022/10/10 00:42:53;;;;;;;;;24.33;21.00;;;;;14.89;59.68;100895.91;4959089;28;45260;-70
2022/10/10 00:45:36;;;;;;;;;22.33;21.33;;;;;14.98;59.60;100920.84;4958505;28;45269;-70
2022/10/10 00:48:07;;;;;;;;;24.67;18.33;;;;;14.53;59.92;100851.75;4952107;28;45202;-72
2022/10/10 00:50:37;;;;;;;;;24.00;21.00;;;;;14.65;60.19;100882.56;4958869;28;45348;-70
2022/10/10 00:53:05;;;;;;;;;20.67;19.33;;;;;14.54;60.23;100880.19;4951872;28;45156;-72
2022/10/10 00:55:31;;;;;;;;;28.67;24.33;;;;;14.36;60.20;100850.03;4952244;28;47999;-71
2022/10/10 00:57:57;;;;;;;;;24.33;21.00;;;;;14.38;60.45;100856.91;4958069;28;45418;-72
2022/10/10 01:00:22;;;;;;;;;23.67;23.67;;;;;14.57;60.71;100914.63;4958857;28;45444;-72
2022/10/10 01:02:47;;;;;;;;;20.00;17.33;;;;;14.50;61.07;100925.16;4957068;28;45479;-71
2022/10/10 01:05:13;;;;;;;;;25.00;24.00;;;;;14.40;61.99;100920.94;4958820;28;46306;-75
2022/10/10 01:07:40;;;;;;;;;27.67;25.00;;;;;13.92;61.60;100851.16;4959663;28;45552;-72
2022/10/10 01:10:11;;;;;;;;;20.33;20.33;;;;;13.85;61.65;100835.94;4960820;28;45841;-71
2022/10/10 01:12:52;;;;;;;;;22.00;20.67;;;;;14.26;61.84;100903.72;4964316;28;45612;-73
2022/10/10 01:15:25;;;;;;;;;23.00;20.67;;;;;13.81;61.99;100829.22;4958390;28;46391;-73
2022/10/10 01:17:55;;;;;;;;;29.33;24.00;;;;;13.60;61.94;100793.09;4959017;28;45491;-71
2022/10/10 01:20:26;;;;;;;;;21.00;18.33;;;;;14.23;62.07;100899.53;4958708;28;45414;-71
2022/10/10 01:23:06;;;;;;;;;21.67;20.67;;;;;14.21;62.17;100908.69;4958547;28;45479;-71
2022/10/10 01:25:41;;;;;;;;;22.33;22.33;;;;;14.22;62.00;100897.00;4964255;28;46369;-71
2022/10/10 01:28:29;;;;;;;;;20.67;19.33;;;;;14.03;62.04;100870.56;4948211;28;45492;-70
2022/10/10 01:30:57;;;;;;;;;21.67;21.67;;;;;13.82;62.30;100838.94;4952442;28;45177;-72
2022/10/10 01:33:42;;;;;;;;;23.33;22.33;;;;;14.19;62.49;100908.84;4958012;28;45349;-74
2022/10/10 01:36:18;;;;;;;;;22.00;22.00;;;;;13.99;62.46;100870.03;4958552;28;46043;-71
2022/10/10 01:38:49;;;;;;;;;21.67;19.33;;;;;14.23;62.45;100904.03;4973326;28;45280;-71
2022/10/10 01:41:25;;;;;;;;;20.67;18.67;;;;;14.24;62.74;100900.34;4958439;28;45179;-70
2022/10/10 01:43:55;;;;;;;;;19.33;19.00;;;;;14.11;62.51;100882.09;4958788;28;45252;-71
2022/10/10 01:46:21;;;;;;;;;23.00;18.67;;;;;14.23;62.37;100899.53;4958006;28;48785;-70
2022/10/10 01:48:50;;;;;;;;;20.67;18.67;;;;;13.88;62.57;100846.28;4957752;28;45326;-72
2022/10/10 01:51:33;;;;;;;;;16.00;14.33;;;;;14.24;62.60;100901.19;4958451;28;45421;-71
2022/10/10 01:54:18;;;;;;;;;19.67;19.67;;;;;14.25;62.46;100894.84;4957035;28;45373;-72
2022/10/10 01:57:14;;;;;;;;;17.33;17.33;;;;;14.21;62.80;100900.66;4957970;28;45717;-71
2022/10/10 01:59:42;;;;;;;;;18.33;18.33;;;;;14.19;63.26;100894.63;4958127;28;45557;-70
2022/10/10 02:02:19;;;;;;;;;18.00;17.33;;;;;13.69;62.33;100820.69;4958152;28;45308;-72
2022/10/10 02:04:56;;;;;;;;;19.33;18.67;;;;;14.18;62.61;100892.97;4958520;28;45390;-71
2022/10/10 02:07:29;;;;;;;;;17.00;16.67;;;;;14.15;62.87;100894.13;4956375;28;48357;-72
2022/10/10 02:09:56;;;;;;;;;21.33;20.33;;;;;14.17;62.81;100889.47;4957921;28;45224;-70
2022/10/10 02:12:22;;;;;;;;;21.67;20.67;;;;;13.98;62.32;100857.66;4958375;28;45416;-71
2022/10/10 02:14:55;;;;;;;;;19.67;18.67;;;;;14.08;62.75;100881.59;4973299;28;45520;-71
2022/10/10 02:17:25;;;;;;;;;17.00;17.00;;;;;13.97;62.87;100861.34;4958189;28;46624;-70
2022/10/10 02:19:57;;;;;;;;;19.33;17.33;;;;;14.23;62.62;100899.53;4959014;28;45489;-69
2022/10/10 02:22:25;;;;;;;;;17.67;14.00;;;;;14.24;62.55;100900.34;4958507;28;45448;-74
2022/10/10 02:24:52;;;;;;;;;15.67;14.33;;;;;14.23;63.07;100898.69;4958514;28;45212;-71
2022/10/10 02:27:27;;;;;;;;;19.33;16.33;;;;;14.17;62.56;100885.94;4957971;28;45414;-71
2022/10/10 02:29:55;;;;;;;;;16.33;15.33;;;;;14.18;62.76;100891.13;4957641;28;45401;-73
2022/10/10 02:32:31;;;;;;;;;15.33;15.00;;;;;13.94;62.65;100845.63;4958014;28;45516;-71
2022/10/10 02:35:07;;;;;;;;;15.33;14.67;;;;;13.64;62.62;100781.09;4958177;28;45531;-72
2022/10/10 02:37:34;;;;;;;;;16.67;16.67;;;;;14.34;62.60;100894.84;4972459;28;46930;-69
2022/10/10 02:40:03;;;;;;;;;11.67;10.00;;;;;14.36;62.67;100890.16;4957808;28;45495;-71
2022/10/10 02:42:29;;;;;;;;;15.67;15.33;;;;;14.36;62.31;100891.00;4972459;28;45308;-70
2022/10/10 02:44:55;;;;;;;;;13.33;12.67;;;;;14.07;62.58;100835.31;4957833;28;45329;-70
2022/10/10 02:47:21;;;;;;;;;13.00;10.67;;;;;14.13;62.48;100856.03;4972653;28;47663;-71
2022/10/10 02:49:47;;;;;;;;;13.67;10.67;;;;;14.05;62.74;100840.00;4961604;28;45438;-71
2022/10/10 02:52:15;;;;;;;;;13.33;13.33;;;;;14.10;63.07;100851.03;4962016;28;45444;-72
2022/10/10 02:54:40;;;;;;;;;14.00;13.67;;;;;14.21;62.58;100871.25;4958579;28;45411;-71
2022/10/10 02:57:06;;;;;;;;;16.33;16.33;;;;;14.10;63.05;100853.69;4972668;28;48663;-73
2022/10/10 02:59:31;;;;;;;;;16.33;13.67;;;;;14.38;63.01;100901.53;4973891;28;45508;-71
2022/10/10 03:01:57;;;;;;;;;15.00;12.67;;;;;14.34;62.69;100900.19;4961335;28;45253;-70
2022/10/10 03:04:22;;;;;;;;;17.33;15.33;;;;;14.32;62.76;100893.19;4961309;28;45293;-71
2022/10/10 03:06:48;;;;;;;;;15.67;14.33;;;;;14.12;62.94;100859.72;4959588;28;47476;-71
2022/10/10 03:09:13;;;;;;;;;16.00;12.67;;;;;14.34;62.96;100894.84;4960790;28;45186;-69
2022/10/10 03:11:38;;;;;;;;;12.33;11.00;;;;;13.97;63.45;100851.47;4961026;28;45526;-70
2022/10/10 03:14:04;;;;;;;;;16.33;13.33;;;;;14.16;63.56;100876.25;4961183;28;45455;-70
2022/10/10 03:16:29;;;;;;;;;14.00;14.00;;;;;14.14;63.23;100878.25;4960506;28;46145;-71
2022/10/10 03:18:55;;;;;;;;;17.33;17.00;;;;;14.36;63.05;100892.84;4959306;28;45526;-71
2022/10/10 03:21:20;;;;;;;;;16.33;16.33;;;;;14.24;62.83;100879.81;4960743;28;45697;-71
2022/10/10 03:23:45;;;;;;;;;19.67;17.33;;;;;14.25;62.96;100886.81;4960681;28;45408;-70
2022/10/10 03:26:11;;;;;;;;;19.33;17.33;;;;;14.28;63.18;100886.50;4960454;28;48821;-72
2022/10/10 03:28:37;;;;;;;;;16.67;16.67;;;;;14.02;63.52;100843.00;4963687;28;45368;-70
2022/10/10 03:31:03;;;;;;;;;18.00;16.33;;;;;13.99;63.29;100844.13;4977296;28;45417;-72
2022/10/10 03:33:28;;;;;;;;;15.67;14.00;;;;;14.17;63.58;100872.59;4960704;28;45515;-71
2022/10/10 03:35:53;;;;;;;;;16.67;14.33;;;;;14.04;63.81;100851.69;4960350;28;46635;-70
2022/10/10 03:38:19;;;;;;;;;15.67;13.00;;;;;14.24;63.67;100897.69;4960276;28;45449;-73
2022/10/10 03:40:45;;;;;;;;;16.33;14.33;;;;;13.88;63.89;100840.94;4960281;28;48208;-72
2022/10/10 03:43:12;;;;;;;;;12.00;12.00;;;;;14.24;63.80;100895.84;4959226;28;45514;-71
2022/10/10 03:45:37;;;;;;;;;16.00;14.67;;;;;14.12;63.96;100875.75;4960129;28;46619;-70
2022/10/10 03:48:04;;;;;;;;;15.33;12.67;;;;;14.05;63.64;100864.06;4975258;28;46058;-69
2022/10/10 03:50:29;;;;;;;;;14.33;12.67;;;;;13.65;63.59;100797.97;4960173;28;45528;-69
2022/10/10 03:52:55;;;;;;;;;14.33;14.33;;;;;14.14;64.18;100883.59;4960244;28;45436;-72
2022/10/10 03:55:20;;;;;;;;;14.33;13.33;;;;;14.08;64.25;100869.06;4959727;28;45997;-73
2022/10/10 03:57:46;;;;;;;;;18.00;16.67;;;;;14.03;63.93;100865.22;4959488;28;53884;-71
2022/10/10 04:00:12;;;;;;;;;10.33;10.33;;;;;14.15;64.13;100886.13;4960503;28;45428;-71
2022/10/10 04:02:38;;;;;;;;;11.67;11.67;;;;;14.04;64.07;100872.25;4975098;28;45570;-71
2022/10/10 04:05:04;;;;;;;;;15.67;14.67;;;;;14.04;64.55;100877.59;4974536;28;46857;-71
2022/10/10 04:07:30;;;;;;;;;12.33;11.67;;;;;14.12;64.17;100881.09;4959824;28;45310;-73
2022/10/10 04:09:55;;;;;;;;;16.33;15.67;;;;;12.04;63.85;100543.63;4959906;28;45424;-70
2022/10/10 04:12:21;;;;;;;;;16.00;13.67;;;;;13.87;64.39;100852.63;4960182;28;45156;-70
2022/10/10 04:14:46;;;;;;;;;12.33;12.00;;;;;12.23;64.13;100591.38;4959946;28;45254;-72
2022/10/10 04:17:12;;;;;;;;;18.67;14.33;;;;;14.14;64.38;100895.13;4958167;28;45779;-71
2022/10/10 04:19:37;;;;;;;;;20.67;17.00;;;;;14.10;64.56;100885.78;4974240;28;45281;-72
2022/10/10 04:22:02;;;;;;;;;16.33;16.00;;;;;14.14;64.22;100887.13;4959783;28;45435;-71
2022/10/10 04:24:28;;;;;;;;;10.67;10.67;;;;;13.84;64.13;100832.44;4958116;28;45983;-70
2022/10/10 04:26:53;;;;;;;;;14.67;14.67;;;;;14.17;64.21;100878.75;4960516;28;45227;-72
2022/10/10 04:29:19;;;;;;;;;15.00;13.33;;;;;13.95;64.78;100852.66;4959967;28;45306;-73
2022/10/10 04:31:44;;;;;;;;;14.00;14.00;;;;;13.90;64.51;100852.31;4959769;28;45257;-71
2022/10/10 04:34:09;;;;;;;;;14.67;14.67;;;;;14.11;64.48;100889.28;4959403;28;46302;-73
2022/10/10 04:36:35;;;;;;;;;19.33;16.00;;;;;13.83;64.58;100843.28;4959824;28;45669;-70
2022/10/10 04:39:01;;;;;;;;;17.33;16.33;;;;;14.02;64.74;100875.06;4960797;28;45260;-70
2022/10/10 04:41:26;;;;;;;;;15.67;15.67;;;;;14.01;65.02;100878.72;4960557;28;45453;-74
2022/10/10 04:43:51;;;;;;;;;16.67;15.67;;;;;13.68;64.97;100824.34;4959123;28;46380;-70
2022/10/10 04:46:17;;;;;;;;;12.33;12.00;;;;;13.92;65.07;100874.38;4959226;28;45551;-69
2022/10/10 04:48:42;;;;;;;;;16.33;16.00;;;;;13.88;64.87;100852.47;4959516;28;45366;-74
2022/10/10 04:51:08;;;;;;;;;13.00;13.00;;;;;14.09;64.98;100880.59;4959669;28;45461;-73
2022/10/10 04:53:34;;;;;;;;;14.00;14.00;;;;;13.99;65.09;100862.00;4959071;28;46097;-73
2022/10/10 04:55:59;;;;;;;;;16.00;15.00;;;;;14.01;65.10;100870.69;4973737;28;46095;-73
2022/10/10 04:58:24;;;;;;;;;16.00;12.67;;;;;13.50;64.88;100784.38;4959011;28;45442;-73
2022/10/10 05:00:52;;;;;;;;;15.33;13.33;;;;;13.18;64.93;100712.16;4959345;28;45537;-72
2022/10/10 05:03:17;;;;;;;;;12.33;12.00;;;;;14.09;65.14;100870.75;4958958;28;45554;-73
2022/10/10 05:05:42;;;;;;;;;15.67;14.33;;;;;14.07;65.42;100874.59;4959113;28;45268;-73
2022/10/10 05:08:08;;;;;;;;;16.00;15.00;;;;;13.18;65.73;100755.72;4959401;28;45418;-74
2022/10/10 05:10:37;;;;;;;;;11.00;11.00;;;;;13.50;65.66;100805.75;4959117;28;45212;-70
2022/10/10 05:13:04;;;;;;;;;17.00;15.33;;;;;13.62;65.46;100817.84;4959227;28;46513;-72
2022/10/10 05:15:29;;;;;;;;;14.33;13.00;;;;;13.48;65.70;100801.56;4961490;28;45321;-71
2022/10/10 05:17:54;;;;;;;;;14.00;14.00;;;;;13.84;65.89;100861.81;4980636;28;45332;-72
2022/10/10 05:20:20;;;;;;;;;15.67;15.67;;;;;13.89;66.22;100870.19;4974976;28;45278;-72
2022/10/10 05:22:46;;;;;;;;;14.67;14.00;;;;;13.89;66.30;100896.91;4957333;28;45853;-73
2022/10/10 05:25:11;;;;;;;;;14.00;13.00;;;;;13.86;66.46;100864.34;4958228;28;45216;-71
2022/10/10 05:27:36;;;;;;;;;14.67;14.67;;;;;13.35;66.22;100786.84;4958549;28;45456;-71
2022/10/10 05:30:02;;;;;;;;;14.67;13.33;;;;;13.35;66.52;100770.81;4958661;28;45223;-72
2022/10/10 05:32:28;;;;;;;;;15.67;12.00;;;;;14.00;66.42;100893.09;4958068;28;46621;-73
2022/10/10 05:34:53;;;;;;;;;16.33;12.67;;;;;13.88;66.56;100857.81;4958124;28;45222;-72
2022/10/10 05:37:18;;;;;;;;;4.33;3.00;;;;;13.63;66.86;100830.19;4958062;28;49979;-72
2022/10/10 05:39:44;;;;;;;;;13.67;12.67;;;;;13.72;66.72;100857.75;4958429;28;45482;-71
2022/10/10 05:42:09;;;;;;;;;18.00;14.00;;;;;13.78;66.38;100870.47;4958049;28;45884;-72
2022/10/10 05:44:35;;;;;;;;;14.67;13.33;;;;;13.85;67.23;100878.69;4956891;28;45485;-73
2022/10/10 05:47:00;;;;;;;;;13.67;10.00;;;;;13.87;67.08;100892.72;4955764;28;45658;-72
2022/10/10 05:49:26;;;;;;;;;14.33;13.00;;;;;13.23;66.72;100760.59;4958300;28;45445;-71
2022/10/10 05:51:51;;;;;;;;;11.00;11.00;;;;;13.89;66.62;100885.38;4959323;28;45727;-73
2022/10/10 05:54:16;;;;;;;;;10.00;9.67;;;;;13.67;67.08;100844.91;4956233;28;45643;-73
2022/10/10 05:56:42;;;;;;;;;17.33;13.67;;;;;13.78;67.31;100866.97;4958530;28;48300;-73
2022/10/10 05:59:07;;;;;;;;;11.00;11.00;;;;;13.32;67.35;100802.34;4961802;28;45531;-74
2022/10/10 06:01:33;;;;;;;;;10.33;10.33;;;;;13.78;66.90;100869.63;4959779;28;47509;-71
2022/10/10 06:03:58;;;;;;;;;13.67;12.67;;;;;13.78;67.34;100870.47;4977087;28;45549;-72
2022/10/10 06:06:24;;;;;;;;;11.33;10.33;;;;;13.74;67.45;100869.13;4977850;28;45520;-72
2022/10/10 06:08:50;;;;;;;;;15.33;13.00;;;;;13.42;67.92;100829.78;4977848;28;45622;-72
2022/10/10 06:11:18;;;;;;;;;12.67;12.33;;;;;13.53;67.63;100853.50;4977657;28;46164;-72
2022/10/10 06:13:44;;;;;;;;;18.00;16.67;;;;;13.73;67.82;100875.47;4977268;28;45395;-74
2022/10/10 06:16:10;;;;;;;;;14.00;10.67;;;;;13.77;67.94;100898.19;4970369;28;45448;-71
2022/10/10 06:18:35;;;;;;;;;12.67;12.67;;;;;12.81;67.80;100726.66;4975933;28;45543;-73
2022/10/10 06:21:03;;;;;;;;;15.67;11.33;;;;;13.58;67.72;100848.50;4976249;28;46277;-73
2022/10/10 06:23:29;;;;;;;;;15.67;13.67;;;;;13.87;67.50;100890.06;4974062;28;45361;-73
2022/10/10 06:25:54;;;;;;;;;13.00;12.00;;;;;13.69;67.61;100864.28;4969567;28;45498;-77
2022/10/10 06:28:20;;;;;;;;;18.33;14.67;;;;;13.65;67.57;100857.59;4947092;28;45571;-73
2022/10/10 06:30:47;;;;;;;;;12.33;10.33;;;;;13.45;67.29;100818.78;4958636;28;45247;-73
2022/10/10 06:33:14;;;;;;;;;15.67;15.00;;;;;13.28;67.50;100784.97;4957599;28;45253;-73
2022/10/10 06:35:44;;;;;;;;;13.00;13.00;;;;;13.96;66.85;100886.41;4961651;28;45473;-71
2022/10/10 06:38:12;;;;;;;;;16.33;14.67;;;;;14.07;67.14;100910.16;4961767;28;45489;-73
2022/10/10 06:40:38;;;;;;;;;20.00;17.67;;;;;14.15;67.10;100902.16;4961433;28;46223;-72
2022/10/10 06:43:07;;;;;;;;;13.00;12.00;;;;;14.08;66.81;100890.44;4944104;28;46823;-73
2022/10/10 06:45:36;;;;;;;;;15.67;15.67;;;;;13.87;66.77;100852.63;4961388;28;45492;-75
2022/10/10 06:48:02;;;;;;;;;12.67;10.67;;;;;13.99;66.18;100860.16;4961275;28;45461;-74
2022/10/10 06:50:27;;;;;;;;;14.33;10.33;;;;;13.97;66.62;100866.69;4960768;28;46534;-74
2022/10/10 06:52:52;;;;;;;;;17.00;14.00;;;;;14.29;66.28;100904.22;4961289;28;45456;-76
2022/10/10 06:55:21;;;;;;;;;14.67;14.67;;;;;14.35;66.37;100928.63;4960124;28;45492;-73
2022/10/10 06:57:46;;;;;;;;;15.00;11.67;;;;;14.40;66.32;100915.56;4960691;28;46025;-71
2022/10/10 07:00:12;;;;;;;;;15.00;14.33;;;;;14.57;65.98;100926.16;4962746;28;46150;-72
2022/10/10 07:02:39;;;;;;;;;11.67;10.67;;;;;14.03;65.32;100823.28;4961100;28;45497;-72
2022/10/10 07:05:15;;;;;;;;;13.67;13.67;;;;;14.94;64.99;100940.91;4963047;28;45318;-73
2022/10/10 07:07:42;;;;;;;;;14.00;13.67;;;;;15.16;64.70;100950.13;4961021;28;45350;-73
2022/10/10 07:10:10;;;;;;;;;16.00;14.00;;;;;15.44;64.19;100948.75;4959821;28;48322;-72
2022/10/10 07:12:36;;;;;;;;;14.33;14.33;;;;;15.97;62.42;100923.13;4959697;28;45339;-75
2022/10/10 07:15:01;;;;;;;;;16.33;14.00;;;;;16.67;60.19;100912.34;4928545;28;45681;-72
2022/10/10 07:17:27;;;;;;;;;13.67;11.67;;;;;17.36;58.52;100946.31;4937378;28;45438;-77
2022/10/10 07:19:52;;;;;;;;;12.00;12.00;;;;;17.73;57.85;100950.81;4960153;28;46453;-75
2022/10/10 07:22:17;;;;;;;;;16.33;12.00;;;;;17.49;57.03;100865.88;4971169;28;45279;-74
2022/10/10 07:24:43;;;;;;;;;10.00;10.00;;;;;18.09;55.88;100872.88;4976971;28;45903;-74
2022/10/10 07:27:08;;;;;;;;;12.67;12.33;;;;;17.93;54.58;100753.72;4957051;28;45697;-72
2022/10/10 07:29:34;;;;;;;;;21.33;17.67;;;;;19.37;53.33;100923.97;4959922;28;46532;-74
2022/10/10 07:31:59;;;;;;;;;21.33;17.00;;;;;19.03;51.39;100839.38;4959594;28;45447;-74
2022/10/10 07:34:24;;;;;;;;;12.33;12.33;;;;;19.71;52.28;100934.81;4959517;28;48171;-74
2022/10/10 07:36:50;;;;;;;;;15.67;13.33;;;;;19.74;51.80;100950.59;4943308;28;45446;-73
2022/10/10 07:39:23;;;;;;;;;12.67;11.33;;;;;19.59;52.20;100947.19;4960944;28;46005;-74
2022/10/10 07:41:49;;;;;;;;;11.67;11.67;;;;;19.38;52.22;100955.31;4961110;28;45308;-75
2022/10/10 07:44:15;;;;;;;;;12.33;12.33;;;;;19.11;52.93;100948.88;4965520;28;45453;-75
2022/10/10 07:46:40;;;;;;;;;13.33;12.33;;;;;18.94;53.56;100960.97;4961180;28;45636;-74
2022/10/10 07:49:06;;;;;;;;;9.00;9.00;;;;;18.58;53.80;100921.41;4960336;28;46107;-75
2022/10/10 07:51:32;;;;;;;;;16.00;11.33;;;;;18.35;53.86;100900.06;4958966;28;45348;-72
2022/10/10 07:53:57;;;;;;;;;12.33;11.33;;;;;18.53;54.54;100954.31;4961080;28;45219;-72
2022/10/10 07:56:23;;;;;;;;;12.33;12.33;;;;;18.40;54.85;100973.00;4963033;28;45386;-72
2022/10/10 07:58:49;;;;;;;;;16.33;14.67;;;;;18.31;55.43;100974.16;4963612;28;45649;-72
2022/10/10 08:01:14;;;;;;;;;13.33;12.33;;;;;18.30;55.17;100977.88;4962810;28;45441;-72
2022/10/10 08:03:40;;;;;;;;;13.00;11.33;;;;;17.49;56.06;100839.00;4960664;28;45307;-73
2022/10/10 08:06:09;;;;;;;;;16.33;12.67;;;;;17.56;55.88;100850.66;4960968;28;45176;-72
2022/10/10 08:08:35;;;;;;;;;13.33;12.33;;;;;18.21;56.20;100973.59;4959547;28;48921;-73
2022/10/10 08:11:03;;;;;;;;;13.33;12.67;;;;;17.77;56.45;100890.28;4960679;28;45834;-71
2022/10/10 08:13:29;;;;;;;;;13.67;12.33;;;;;18.19;56.17;100948.72;4959735;28;45432;-72
2022/10/10 08:15:54;;;;;;;;;12.00;10.33;;;;;18.44;56.17;100984.25;4957987;28;45553;-74
2022/10/10 08:18:20;;;;;;;;;27.00;22.00;;;;;17.35;55.76;100762.75;4959823;28;45453;-75
2022/10/10 08:20:45;;;;;;;;;14.33;12.00;;;;;18.02;55.42;100837.84;4960073;28;45445;-72
2022/10/10 08:23:11;;;;;;;;;11.00;11.00;;;;;18.60;54.81;100895.13;4959744;28;45330;-75
2022/10/10 08:25:36;;;;;;;;;12.00;9.00;;;;;19.33;54.24;100973.94;4959955;28;45600;-74
2022/10/10 08:28:01;;;;;;;;;18.00;14.00;;;;;19.51;53.91;100968.06;4959885;28;45538;-74
2022/10/10 08:30:27;;;;;;;;;14.00;13.00;;;;;19.53;52.87;100937.16;4942614;28;45535;-72
2022/10/10 08:32:52;;;;;;;;;12.67;12.33;;;;;20.03;52.63;101002.66;4959614;28;45478;-72
2022/10/10 08:35:18;;;;;;;;;16.33;13.33;;;;;19.73;52.39;100932.75;4942465;28;45353;-72
2022/10/10 08:37:43;;;;;;;;;17.00;13.67;;;;;20.19;52.32;100974.47;4959339;28;45591;-74
2022/10/10 08:40:15;;;;;;;;;11.67;11.33;;;;;20.45;51.21;101006.22;4959313;28;45552;-72
2022/10/10 08:42:47;;;;;;;;;18.67;15.67;;;;;20.30;51.34;100965.81;4959833;28;45547;-73
2022/10/10 08:45:20;;;;;;;;;14.00;11.33;;;;;20.31;51.40;100959.38;4956394;28;45466;-75
2022/10/10 08:48:02;;;;;;;;;15.33;11.00;;;;;20.60;51.09;100987.94;4955442;28;45577;-71
2022/10/10 08:50:30;;;;;;;;;14.67;13.33;;;;;20.70;50.98;101004.63;4954244;28;45565;-74
2022/10/10 08:53:02;;;;;;;;;14.33;13.67;;;;;20.75;50.98;101018.34;4955083;28;45525;-74
2022/10/10 08:55:32;;;;;;;;;14.67;13.33;;;;;20.18;50.89;100918.81;4955944;28;45838;-71
2022/10/10 08:58:11;;;;;;;;;13.67;10.67;;;;;20.08;50.85;100907.59;4958167;28;46425;-73
2022/10/10 09:00:49;;;;;;;;;12.00;11.67;;;;;20.84;50.86;101033.34;4957582;28;45571;-72
2022/10/10 09:03:26;;;;;;;;;12.33;12.33;;;;;20.91;50.75;101036.88;4957750;28;45598;-71
2022/10/10 09:06:13;;;;;;;;;14.00;12.67;;;;;20.87;50.37;100995.09;4959698;28;45555;-74
2022/10/10 09:08:45;;;;;;;;;13.67;11.67;;;;;21.25;50.03;101027.00;4957687;28;45509;-70
2022/10/10 09:11:49;;;;;;;;;14.00;10.33;;;;;21.89;49.11;101025.50;4958946;28;45355;-74
2022/10/10 09:14:33;;;;;;;;;15.67;14.67;;;;;22.16;48.30;101022.53;4929745;28;45488;-75
2022/10/10 09:17:14;;;;;;;;;14.67;13.00;;;;;22.16;47.93;101027.09;4961130;28;45943;-74
2022/10/10 09:20:11;;;;;;;;;15.67;14.00;;;;;22.10;48.36;101034.22;4961322;28;45803;-75
2022/10/10 09:22:52;;;;;;;;;14.00;11.67;;;;;22.08;48.00;101035.47;4960247;28;45554;-73
2022/10/10 09:25:26;;;;;;;;;12.67;11.33;;;;;22.02;48.28;101055.22;4959278;28;45419;-73
2022/10/10 09:28:04;;;;;;;;;24.67;23.33;;;;;21.84;48.70;101032.38;4959909;28;45234;-75
2022/10/10 09:30:34;;;;;;;;;15.33;14.33;;;;;21.39;49.50;101015.13;4958817;28;45908;-74
2022/10/10 09:33:16;;;;;;;;;9.33;8.00;;;;;21.11;50.27;100992.84;4957467;28;45537;-74
2022/10/10 09:35:45;;;;;;;;;12.33;9.33;;;;;20.35;50.61;100903.94;4956148;28;45449;-73
2022/10/10 09:38:13;;;;;;;;;9.50;9.50;;;;;20.96;51.18;101053.31;4960105;28;45284;-75
2022/10/10 09:40:47;;;;;;;;;15.00;11.00;;;;;20.28;51.81;100990.31;4973629;28;47061;-72
2022/10/10 09:43:17;;;;;;;;;10.00;10.00;;;;;20.65;51.98;101063.84;4977112;28;45651;-75
2022/10/10 09:45:50;;;;;;;;;13.00;9.67;;;;;20.26;53.01;101053.66;4978234;28;45424;-74
2022/10/10 09:48:15;;;;;;;;;16.33;11.33;;;;;19.98;53.78;101034.78;4957887;28;45502;-74
2022/10/10 09:50:40;;;;;;;;;10.33;10.33;;;;;19.91;54.14;101036.63;4965544;28;45418;-74
2022/10/10 09:53:06;;;;;;;;;13.00;10.00;;;;;19.95;54.59;101063.00;4960800;28;45530;-73
2022/10/10 09:55:37;;;;;;;;;13.33;9.67;;;;;19.84;54.86;101087.88;4939321;28;45487;-74
2022/10/10 09:58:31;;;;;;;;;12.67;10.67;;;;;19.82;55.25;101086.38;4958340;28;45345;-73
2022/10/10 10:01:13;;;;;;;;;8.00;7.00;;;;;18.82;55.54;100955.25;4958419;28;45697;-73
2022/10/10 10:03:39;;;;;;;;;12.67;10.33;;;;;19.40;56.25;101063.78;4954492;28;45615;-71
2022/10/10 10:06:04;;;;;;;;;12.33;10.00;;;;;17.88;56.25;100826.09;4956964;28;45520;-75
2022/10/10 10:08:33;;;;;;;;;11.33;10.00;;;;;19.30;56.18;101039.88;4956570;28;45465;-75
2022/10/10 10:10:59;;;;;;;;;11.00;10.67;;;;;19.61;56.73;101089.94;4959233;28;46270;-72
2022/10/10 10:13:29;;;;;;;;;7.33;7.33;;;;;17.95;56.60;100828.84;4945892;28;45268;-76
2022/10/10 10:16:04;;;;;;;;;8.00;8.00;;;;;19.50;56.95;101085.88;4968877;28;45624;-71
2022/10/10 10:18:36;;;;;;;;;10.67;9.67;;;;;19.42;57.33;101091.41;4960957;28;45350;-74
2022/10/10 10:21:02;;;;;;;;;11.67;10.67;;;;;19.39;57.38;101086.38;4980196;28;46607;-76
2022/10/10 10:23:32;;;;;;;;;12.67;12.67;;;;;19.27;57.34;101056.44;4973415;28;45599;-75
2022/10/10 10:26:00;;;;;;;;;14.00;11.67;;;;;19.55;56.99;101104.19;4939976;28;45273;-72
2022/10/10 10:28:26;;;;;;;;;11.67;10.67;;;;;19.10;56.85;101044.25;4939147;28;45226;-71
2022/10/10 10:30:54;;;;;;;;;13.00;11.33;;;;;19.52;57.28;101108.09;4954825;28;48591;-73
2022/10/10 10:33:51;;;;;;;;;10.33;10.33;;;;;19.62;56.85;101111.34;4954504;28;45426;-74
2022/10/10 10:36:35;;;;;;;;;10.67;10.67;;;;;18.13;56.80;100853.47;4939271;28;45349;-72
2022/10/10 10:39:19;;;;;;;;;13.00;11.67;;;;;19.80;56.63;101123.50;4919556;28;45277;-74
2022/10/10 10:41:47;;;;;;;;;7.00;7.00;;;;;19.90;56.36;101121.31;4919862;28;45350;-73
2022/10/10 10:44:26;;;;;;;;;10.33;10.33;;;;;18.85;55.78;100922.56;4934894;28;45728;-75
2022/10/10 10:47:12;;;;;;;;;9.33;9.33;;;;;20.07;55.75;101122.69;4934556;28;45569;-76
2022/10/10 10:49:47;;;;;;;;;12.67;11.67;;;;;20.14;55.62;101128.13;4921218;28;45482;-73
2022/10/10 10:52:29;;;;;;;;;10.33;10.33;;;;;20.05;55.92;101124.75;4947948;28;46920;-76
2022/10/10 10:55:22;;;;;;;;;10.00;9.33;;;;;20.16;55.69;101137.69;4973465;28;45426;-74
2022/10/10 10:58:29;;;;;;;;;13.33;9.33;;;;;20.26;55.75;101142.75;4958299;28;45554;-74
2022/10/10 11:01:04;;;;;;;;;13.67;12.33;;;;;19.97;55.70;101092.50;4953856;28;45346;-73
2022/10/10 11:03:35;;;;;;;;;12.67;12.33;;;;;20.17;55.41;101119.63;4960456;28;45348;-73
2022/10/10 11:06:18;;;;;;;;;11.00;11.00;;;;;20.30;55.72;101150.25;4973424;28;45362;-74
2022/10/10 11:08:59;;;;;;;;;11.33;10.33;;;;;20.31;55.85;101151.09;4955509;28;45323;-74
2022/10/10 11:11:48;;;;;;;;;14.33;12.67;;;;;20.39;55.73;101155.50;4941132;28;45493;-73
2022/10/10 11:14:46;;;;;;;;;15.33;13.33;;;;;20.49;55.55;101150.63;4955953;28;47538;-75
2022/10/10 11:17:27;;;;;;;;;12.33;11.00;;;;;20.07;55.37;101079.50;4954387;28;45489;-73
2022/10/10 11:20:23;;;;;;;;;12.33;12.33;;;;;20.68;55.23;101166.09;4938972;28;45281;-73